sensor_id;sensor_type;location;lat;lon;timestamp;pressure;altitude;pressure_sealevel;temperature
71897;BMP280;59767;51.344;12.362;2023-07-24T00:00:12;164393.75;;;22.13
71897;BMP280;59767;51.344;12.362;2023-07-24T00:03:16;164387.16;;;22.10
71897;BMP280;59767;51.344;12.362;2023-07-24T00:06:21;164376.66;;;22.06
71897;BMP280;59767;51.344;12.362;2023-07-24T00:09:25;164364.84;;;22.02
71897;BMP280;59767;51.344;12.362;2023-07-24T00:12:30;164356.97;;;21.99
71897;BMP280;59767;51.344;12.362;2023-07-24T00:15:34;164356.97;;;21.99
71897;BMP280;59767;51.344;12.362;2023-07-24T00:18:38;164352.94;;;21.97
71897;BMP280;59767;51.344;12.362;2023-07-24T00:21:42;164350.38;;;21.96
71897;BMP280;59767;51.344;12.362;2023-07-24T00:24:46;164335.94;;;21.91
71897;BMP280;59767;51.344;12.362;2023-07-24T00:27:50;164331.91;;;21.89
71897;BMP280;59767;51.344;12.362;2023-07-24T00:30:54;164331.91;;;21.89
71897;BMP280;59767;51.344;12.362;2023-07-24T00:33:59;164324.03;;;21.86
71897;BMP280;59767;51.344;12.362;2023-07-24T00:37:04;164317.50;;;21.84
71897;BMP280;59767;51.344;12.362;2023-07-24T00:40:08;164324.03;;;21.86
71897;BMP280;59767;51.344;12.362;2023-07-24T00:43:12;164326.72;;;21.87
71897;BMP280;59767;51.344;12.362;2023-07-24T00:46:16;164308.31;;;21.80
71897;BMP280;59767;51.344;12.362;2023-07-24T00:49:21;164297.81;;;21.76
71897;BMP280;59767;51.344;12.362;2023-07-24T00:52:25;164291.19;;;21.74
71897;BMP280;59767;51.344;12.362;2023-07-24T00:55:30;164297.81;;;21.76
71897;BMP280;59767;51.344;12.362;2023-07-24T00:58:37;164303.00;;;21.78
71897;BMP280;59767;51.344;12.362;2023-07-24T01:01:41;164310.94;;;21.81
71897;BMP280;59767;51.344;12.362;2023-07-24T01:04:46;164283.31;;;21.71
71897;BMP280;59767;51.344;12.362;2023-07-24T01:07:51;164285.97;;;21.72
71897;BMP280;59767;51.344;12.362;2023-07-24T01:10:57;164288.59;;;21.73
71897;BMP280;59767;51.344;12.362;2023-07-24T01:14:13;164275.44;;;21.68
71897;BMP280;59767;51.344;12.362;2023-07-24T01:17:23;164254.41;;;21.60
71897;BMP280;59767;51.344;12.362;2023-07-24T01:20:29;164238.63;;;21.54
71897;BMP280;59767;51.344;12.362;2023-07-24T01:26:59;164241.25;;;21.55
71897;BMP280;59767;51.344;12.362;2023-07-24T01:30:03;164253.06;;;21.59
71897;BMP280;59767;51.344;12.362;2023-07-24T01:33:08;164253.06;;;21.59
71897;BMP280;59767;51.344;12.362;2023-07-24T01:36:13;164239.97;;;21.54
71897;BMP280;59767;51.344;12.362;2023-07-24T01:39:20;164229.41;;;21.50
71897;BMP280;59767;51.344;12.362;2023-07-24T01:42:25;164224.16;;;21.48
71897;BMP280;59767;51.344;12.362;2023-07-24T01:45:30;164226.84;;;21.49
71897;BMP280;59767;51.344;12.362;2023-07-24T01:48:34;164225.50;;;21.49
71897;BMP280;59767;51.344;12.362;2023-07-24T01:51:38;164239.97;;;21.54
71897;BMP280;59767;51.344;12.362;2023-07-24T01:54:42;164242.56;;;21.55
71897;BMP280;59767;51.344;12.362;2023-07-24T01:57:47;164237.34;;;21.53
71897;BMP280;59767;51.344;12.362;2023-07-24T02:00:55;164246.53;;;21.57
71897;BMP280;59767;51.344;12.362;2023-07-24T02:03:59;164246.53;;;21.57
71897;BMP280;59767;51.344;12.362;2023-07-24T02:07:04;164237.34;;;21.53
71897;BMP280;59767;51.344;12.362;2023-07-24T02:10:09;164224.16;;;21.48
71897;BMP280;59767;51.344;12.362;2023-07-24T02:13:13;164215.00;;;21.45
71897;BMP280;59767;51.344;12.362;2023-07-24T02:16:17;164203.13;;;21.40
71897;BMP280;59767;51.344;12.362;2023-07-24T02:19:21;164190.03;;;21.35
71897;BMP280;59767;51.344;12.362;2023-07-24T02:22:25;164163.75;;;21.25
71897;BMP280;59767;51.344;12.362;2023-07-24T02:25:29;164134.84;;;21.14
71897;BMP280;59767;51.344;12.362;2023-07-24T02:28:34;164113.84;;;21.06
71897;BMP280;59767;51.344;12.362;2023-07-24T02:31:38;164120.34;;;21.09
71897;BMP280;59767;51.344;12.362;2023-07-24T02:34:42;164117.72;;;21.08
71897;BMP280;59767;51.344;12.362;2023-07-24T02:37:46;164124.31;;;21.10
71897;BMP280;59767;51.344;12.362;2023-07-24T02:40:50;164119.06;;;21.08
71897;BMP280;59767;51.344;12.362;2023-07-24T02:43:54;164117.72;;;21.08
71897;BMP280;59767;51.344;12.362;2023-07-24T02:46:58;164115.13;;;21.07
71897;BMP280;59767;51.344;12.362;2023-07-24T02:50:03;164116.41;;;21.07
71897;BMP280;59767;51.344;12.362;2023-07-24T02:53:07;164119.06;;;21.08
71897;BMP280;59767;51.344;12.362;2023-07-24T02:56:11;164129.56;;;21.12
71897;BMP280;59767;51.344;12.362;2023-07-24T02:59:15;164129.56;;;21.12
71897;BMP280;59767;51.344;12.362;2023-07-24T03:02:20;164121.69;;;21.09
71897;BMP280;59767;51.344;12.362;2023-07-24T03:05:24;164112.50;;;21.06
71897;BMP280;59767;51.344;12.362;2023-07-24T03:08:28;164107.19;;;21.04
71897;BMP280;59767;51.344;12.362;2023-07-24T03:11:32;164109.88;;;21.05
71897;BMP280;59767;51.344;12.362;2023-07-24T03:14:36;164096.72;;;21.00
71897;BMP280;59767;51.344;12.362;2023-07-24T03:17:41;164087.50;;;20.96
71897;BMP280;59767;51.344;12.362;2023-07-24T03:20:45;164083.53;;;20.95
71897;BMP280;59767;51.344;12.362;2023-07-24T03:23:49;164084.88;;;20.95
71897;BMP280;59767;51.344;12.362;2023-07-24T03:26:53;164091.47;;;20.98
71897;BMP280;59767;51.344;12.362;2023-07-24T03:29:58;164096.72;;;21.00
71897;BMP280;59767;51.344;12.362;2023-07-24T03:33:03;164100.66;;;21.01
71897;BMP280;59767;51.344;12.362;2023-07-24T03:36:07;164098.03;;;21.00
71897;BMP280;59767;51.344;12.362;2023-07-24T03:39:11;164104.56;;;21.03
71897;BMP280;59767;51.344;12.362;2023-07-24T03:42:31;164104.56;;;21.03
71897;BMP280;59767;51.344;12.362;2023-07-24T03:45:35;164103.28;;;21.02
71897;BMP280;59767;51.344;12.362;2023-07-24T03:48:39;164109.88;;;21.05
71897;BMP280;59767;51.344;12.362;2023-07-24T03:51:44;164124.31;;;21.10
71897;BMP280;59767;51.344;12.362;2023-07-24T03:54:48;164136.09;;;21.15
71897;BMP280;59767;51.344;12.362;2023-07-24T03:57:52;164137.44;;;21.15
71897;BMP280;59767;51.344;12.362;2023-07-24T04:00:56;164158.44;;;21.23
71897;BMP280;59767;51.344;12.362;2023-07-24T04:04:00;164158.44;;;21.23
71897;BMP280;59767;51.344;12.362;2023-07-24T04:07:05;164157.13;;;21.23
71897;BMP280;59767;51.344;12.362;2023-07-24T04:10:09;164166.38;;;21.26
71897;BMP280;59767;51.344;12.362;2023-07-24T04:13:13;164174.25;;;21.29
71897;BMP280;59767;51.344;12.362;2023-07-24T04:16:17;164176.88;;;21.30
71897;BMP280;59767;51.344;12.362;2023-07-24T04:19:21;164178.16;;;21.31
71897;BMP280;59767;51.344;12.362;2023-07-24T04:22:26;164176.88;;;21.30
71897;BMP280;59767;51.344;12.362;2023-07-24T04:25:29;164176.88;;;21.30
71897;BMP280;59767;51.344;12.362;2023-07-24T04:28:33;164171.63;;;21.28
71897;BMP280;59767;51.344;12.362;2023-07-24T04:31:38;164170.28;;;21.28
71897;BMP280;59767;51.344;12.362;2023-07-24T04:34:42;164183.44;;;21.33
71897;BMP280;59767;51.344;12.362;2023-07-24T04:37:46;164190.03;;;21.35
71897;BMP280;59767;51.344;12.362;2023-07-24T04:40:50;164195.28;;;21.37
71897;BMP280;59767;51.344;12.362;2023-07-24T04:43:54;164203.13;;;21.40
71897;BMP280;59767;51.344;12.362;2023-07-24T04:46:59;164209.72;;;21.43
71897;BMP280;59767;51.344;12.362;2023-07-24T04:50:04;164216.31;;;21.45
71897;BMP280;59767;51.344;12.362;2023-07-24T04:53:08;164213.69;;;21.44
71897;BMP280;59767;51.344;12.362;2023-07-24T04:56:12;164217.63;;;21.46
71897;BMP280;59767;51.344;12.362;2023-07-24T04:59:17;164225.50;;;21.49
71897;BMP280;59767;51.344;12.362;2023-07-24T05:02:21;164243.91;;;21.56
71897;BMP280;59767;51.344;12.362;2023-07-24T05:05:26;164262.28;;;21.63
71897;BMP280;59767;51.344;12.362;2023-07-24T05:08:30;164270.16;;;21.66
71897;BMP280;59767;51.344;12.362;2023-07-24T05:11:34;164289.88;;;21.73
71897;BMP280;59767;51.344;12.362;2023-07-24T05:14:38;164324.03;;;21.86
71897;BMP280;59767;51.344;12.362;2023-07-24T05:17:45;164355.63;;;21.98
71897;BMP280;59767;51.344;12.362;2023-07-24T05:20:49;164375.31;;;22.06
71897;BMP280;59767;51.344;12.362;2023-07-24T05:23:56;164416.06;;;22.21
71897;BMP280;59767;51.344;12.362;2023-07-24T05:27:00;164467.38;;;22.41
71897;BMP280;59767;51.344;12.362;2023-07-24T05:30:05;164480.47;;;22.46
71897;BMP280;59767;51.344;12.362;2023-07-24T05:33:09;164488.41;;;22.49
71897;BMP280;59767;51.344;12.362;2023-07-24T05:36:14;164458.16;;;22.37
71897;BMP280;59767;51.344;12.362;2023-07-24T05:39:18;164444.97;;;22.32
71897;BMP280;59767;51.344;12.362;2023-07-24T05:42:22;164446.31;;;22.33
71897;BMP280;59767;51.344;12.362;2023-07-24T05:45:27;164463.41;;;22.39
71897;BMP280;59767;51.344;12.362;2023-07-24T05:48:31;164492.31;;;22.50
71897;BMP280;59767;51.344;12.362;2023-07-24T05:51:35;164509.41;;;22.57
71897;BMP280;59767;51.344;12.362;2023-07-24T05:54:40;164543.63;;;22.69
71897;BMP280;59767;51.344;12.362;2023-07-24T05:57:44;164546.25;;;22.70
71897;BMP280;59767;51.344;12.362;2023-07-24T06:00:48;164568.56;;;22.79
71897;BMP280;59767;51.344;12.362;2023-07-24T06:03:53;164598.78;;;22.90
71897;BMP280;59767;51.344;12.362;2023-07-24T06:06:57;164621.19;;;22.99
71897;BMP280;59767;51.344;12.362;2023-07-24T06:10:01;164635.63;;;23.04
71897;BMP280;59767;51.344;12.362;2023-07-24T06:13:05;164652.78;;;23.11
71897;BMP280;59767;51.344;12.362;2023-07-24T06:16:09;164693.50;;;23.26
71897;BMP280;59767;51.344;12.362;2023-07-24T06:19:14;164714.56;;;23.34
71897;BMP280;59767;51.344;12.362;2023-07-24T06:22:19;164725.06;;;23.38
71897;BMP280;59767;51.344;12.362;2023-07-24T06:25:23;164750.03;;;23.48
71897;BMP280;59767;51.344;12.362;2023-07-24T06:28:27;164786.84;;;23.62
71897;BMP280;59767;51.344;12.362;2023-07-24T06:31:32;164806.59;;;23.69
71897;BMP280;59767;51.344;12.362;2023-07-24T06:34:36;164856.59;;;23.88
71897;BMP280;59767;51.344;12.362;2023-07-24T06:37:41;164877.66;;;23.96
71897;BMP280;59767;51.344;12.362;2023-07-24T06:40:45;164917.06;;;24.11
71897;BMP280;59767;51.344;12.362;2023-07-24T06:43:49;164949.97;;;24.24
71897;BMP280;59767;51.344;12.362;2023-07-24T06:46:53;164977.63;;;24.34
71897;BMP280;59767;51.344;12.362;2023-07-24T06:49:57;164999.94;;;24.43
71897;BMP280;59767;51.344;12.362;2023-07-24T06:53:02;165063.09;;;24.67
71897;BMP280;59767;51.344;12.362;2023-07-24T06:56:06;165130.22;;;24.92
71897;BMP280;59767;51.344;12.362;2023-07-24T06:59:10;165184.16;;;25.12
71897;BMP280;59767;51.344;12.362;2023-07-24T07:02:14;165263.13;;;25.42
71897;BMP280;59767;51.344;12.362;2023-07-24T07:05:18;165265.75;;;25.43
71897;BMP280;59767;51.344;12.362;2023-07-24T07:08:23;165334.16;;;25.69
71897;BMP280;59767;51.344;12.362;2023-07-24T07:11:27;165374.97;;;25.85
71897;BMP280;59767;51.344;12.362;2023-07-24T07:14:31;165369.72;;;25.83
71897;BMP280;59767;51.344;12.362;2023-07-24T07:17:35;165363.13;;;25.80
71897;BMP280;59767;51.344;12.362;2023-07-24T07:20:45;165385.50;;;25.89
71897;BMP280;59767;51.344;12.362;2023-07-24T07:23:50;165392.09;;;25.91
71897;BMP280;59767;51.344;12.362;2023-07-24T07:26:54;165399.97;;;25.94
71897;BMP280;59767;51.344;12.362;2023-07-24T07:29:58;165418.38;;;26.01
71897;BMP280;59767;51.344;12.362;2023-07-24T07:33:03;165476.34;;;26.23
71897;BMP280;59767;51.344;12.362;2023-07-24T07:36:08;165464.47;;;26.19
71897;BMP280;59767;51.344;12.362;2023-07-24T07:39:12;165484.22;;;26.26
71897;BMP280;59767;51.344;12.362;2023-07-24T07:42:17;165551.34;;;26.52
71897;BMP280;59767;51.344;12.362;2023-07-24T07:45:24;165648.78;;;26.88
71897;BMP280;59767;51.344;12.362;2023-07-24T07:48:29;165714.59;;;27.13
71897;BMP280;59767;51.344;12.362;2023-07-24T07:51:33;165698.81;;;27.07
71897;BMP280;59767;51.344;12.362;2023-07-24T07:54:37;165658.00;;;26.92
71897;BMP280;59767;51.344;12.362;2023-07-24T07:57:41;165603.97;;;26.71
71897;BMP280;59767;51.344;12.362;2023-07-24T08:00:45;165606.66;;;26.73
71897;BMP280;59767;51.344;12.362;2023-07-24T08:03:49;165536.88;;;26.46
71897;BMP280;59767;51.344;12.362;2023-07-24T08:06:53;165522.38;;;26.41
71897;BMP280;59767;51.344;12.362;2023-07-24T08:09:57;165528.94;;;26.43
71897;BMP280;59767;51.344;12.362;2023-07-24T08:13:01;165597.41;;;26.69
71897;BMP280;59767;51.344;12.362;2023-07-24T08:16:13;165664.56;;;26.94
71897;BMP280;59767;51.344;12.362;2023-07-24T08:19:22;165717.19;;;27.14
71897;BMP280;59767;51.344;12.362;2023-07-24T08:22:26;165764.63;;;27.32
71897;BMP280;59767;51.344;12.362;2023-07-24T08:25:30;165819.94;;;27.53
71897;BMP280;59767;51.344;12.362;2023-07-24T08:28:34;165813.34;;;27.51
71897;BMP280;59767;51.344;12.362;2023-07-24T08:31:39;165839.66;;;27.61
71897;BMP280;59767;51.344;12.362;2023-07-24T08:34:43;165910.78;;;27.88
71897;BMP280;59767;51.344;12.362;2023-07-24T08:37:47;165856.78;;;27.67
71897;BMP280;59767;51.344;12.362;2023-07-24T08:41:06;165815.97;;;27.52
71897;BMP280;59767;51.344;12.362;2023-07-24T08:44:11;165776.47;;;27.37
71897;BMP280;59767;51.344;12.362;2023-07-24T08:47:15;165780.44;;;27.38
71897;BMP280;59767;51.344;12.362;2023-07-24T08:50:20;165809.38;;;27.49
71897;BMP280;59767;51.344;12.362;2023-07-24T08:53:24;165893.69;;;27.81
71897;BMP280;59767;51.344;12.362;2023-07-24T08:56:29;165792.25;;;27.43
71897;BMP280;59767;51.344;12.362;2023-07-24T08:59:34;165729.09;;;27.19
71897;BMP280;59767;51.344;12.362;2023-07-24T09:02:38;165768.56;;;27.34
71897;BMP280;59767;51.344;12.362;2023-07-24T09:05:43;165289.25;;;28.12
71897;BMP280;59767;51.344;12.362;2023-07-24T09:08:47;165942.34;;;28.00
71897;BMP280;59767;51.344;12.362;2023-07-24T09:11:52;165868.66;;;27.72
71897;BMP280;59767;51.344;12.362;2023-07-24T09:15:04;165789.66;;;27.42
71897;BMP280;59767;51.344;12.362;2023-07-24T09:18:11;165814.63;;;27.51
71897;BMP280;59767;51.344;12.362;2023-07-24T09:21:27;165903.72;;;28.00
71897;BMP280;59767;51.344;12.362;2023-07-24T09:24:31;165142.63;;;28.15
71897;BMP280;59767;51.344;12.362;2023-07-24T09:27:35;165902.88;;;27.85
71897;BMP280;59767;51.344;12.362;2023-07-24T09:30:40;165885.78;;;27.78
71897;BMP280;59767;51.344;12.362;2023-07-24T09:33:45;165888.38;;;27.79
71897;BMP280;59767;51.344;12.362;2023-07-24T09:36:49;165885.78;;;27.78
71897;BMP280;59767;51.344;12.362;2023-07-24T09:39:54;165902.88;;;27.85
71897;BMP280;59767;51.344;12.362;2023-07-24T09:42:59;165905.50;;;27.86
71897;BMP280;59767;51.344;12.362;2023-07-24T09:46:14;165896.28;;;27.82
71897;BMP280;59767;51.344;12.362;2023-07-24T09:49:19;165872.59;;;27.73
71897;BMP280;59767;51.344;12.362;2023-07-24T09:52:24;165888.38;;;27.79
71897;BMP280;59767;51.344;12.362;2023-07-24T09:55:35;165693.19;;;28.04
71897;BMP280;59767;51.344;12.362;2023-07-24T09:58:41;165603.88;;;28.06
71897;BMP280;59767;51.344;12.362;2023-07-24T10:01:47;165156.03;;;28.14
71897;BMP280;59767;51.344;12.362;2023-07-24T10:04:51;165929.25;;;27.95
71897;BMP280;59767;51.344;12.362;2023-07-24T10:07:56;165902.88;;;27.85
71897;BMP280;59767;51.344;12.362;2023-07-24T10:11:00;165867.31;;;27.71
71897;BMP280;59767;51.344;12.362;2023-07-24T10:14:04;165844.97;;;27.63
71897;BMP280;59767;51.344;12.362;2023-07-24T10:17:09;165863.34;;;27.70
71897;BMP280;59767;51.344;12.362;2023-07-24T10:20:16;165902.88;;;27.85
71897;BMP280;59767;51.344;12.362;2023-07-24T10:23:22;165913.41;;;27.89
71897;BMP280;59767;51.344;12.362;2023-07-24T10:26:26;165881.81;;;27.77
71897;BMP280;59767;51.344;12.362;2023-07-24T10:29:34;165879.19;;;27.76
71897;BMP280;59767;51.344;12.362;2023-07-24T10:32:46;165876.56;;;27.75
71897;BMP280;59767;51.344;12.362;2023-07-24T10:35:54;165887.09;;;27.79
71897;BMP280;59767;51.344;12.362;2023-07-24T10:38:59;165879.19;;;27.76
71897;BMP280;59767;51.344;12.362;2023-07-24T10:42:09;165868.66;;;27.72
71897;BMP280;59767;51.344;12.362;2023-07-24T10:45:14;165885.78;;;27.78
71897;BMP280;59767;51.344;12.362;2023-07-24T10:48:24;165893.69;;;27.81
71897;BMP280;59767;51.344;12.362;2023-07-24T10:51:32;165896.28;;;27.82
71897;BMP280;59767;51.344;12.362;2023-07-24T10:54:38;165877.91;;;27.75
71897;BMP280;59767;51.344;12.362;2023-07-24T10:57:42;165837.09;;;27.60
71897;BMP280;59767;51.344;12.362;2023-07-24T11:00:46;165823.88;;;27.55
71897;BMP280;59767;51.344;12.362;2023-07-24T11:03:51;165837.09;;;27.60
71897;BMP280;59767;51.344;12.362;2023-07-24T11:06:56;165789.66;;;27.42
71897;BMP280;59767;51.344;12.362;2023-07-24T11:10:01;165781.78;;;27.39
71897;BMP280;59767;51.344;12.362;2023-07-24T11:13:10;165785.69;;;27.40
71897;BMP280;59767;51.344;12.362;2023-07-24T11:16:14;165781.78;;;27.39
71897;BMP280;59767;51.344;12.362;2023-07-24T11:19:24;165777.78;;;27.37
71897;BMP280;59767;51.344;12.362;2023-07-24T11:22:28;165784.34;;;27.40
71897;BMP280;59767;51.344;12.362;2023-07-24T11:25:33;165756.75;;;27.29
71897;BMP280;59767;51.344;12.362;2023-07-24T11:28:40;165771.19;;;27.35
71897;BMP280;59767;51.344;12.362;2023-07-24T11:31:44;165731.72;;;27.20
71897;BMP280;59767;51.344;12.362;2023-07-24T11:34:50;165715.94;;;27.14
71897;BMP280;59767;51.344;12.362;2023-07-24T11:37:55;165731.72;;;27.20
71897;BMP280;59767;51.344;12.362;2023-07-24T11:40:59;165765.94;;;27.33
71897;BMP280;59767;51.344;12.362;2023-07-24T11:44:05;165789.66;;;27.42
71897;BMP280;59767;51.344;12.362;2023-07-24T11:47:09;165792.25;;;27.43
71897;BMP280;59767;51.344;12.362;2023-07-24T11:50:14;165784.34;;;27.40
71897;BMP280;59767;51.344;12.362;2023-07-24T11:53:20;165767.22;;;27.33
71897;BMP280;59767;51.344;12.362;2023-07-24T11:56:25;165719.84;;;27.15
71897;BMP280;59767;51.344;12.362;2023-07-24T11:59:37;165725.06;;;27.17
71897;BMP280;59767;51.344;12.362;2023-07-24T12:02:41;165729.09;;;27.19
71897;BMP280;59767;51.344;12.362;2023-07-24T12:05:46;165747.50;;;27.26
71897;BMP280;59767;51.344;12.362;2023-07-24T12:09:02;165805.44;;;27.48
71897;BMP280;59767;51.344;12.362;2023-07-24T12:12:08;165858.13;;;27.68
71897;BMP280;59767;51.344;12.362;2023-07-24T12:15:13;165887.09;;;27.79
71897;BMP280;59767;51.344;12.362;2023-07-24T12:18:18;165909.47;;;27.87
71897;BMP280;59767;51.344;12.362;2023-07-24T12:21:22;165906.84;;;27.86
71897;BMP280;59767;51.344;12.362;2023-07-24T12:24:26;165897.59;;;27.83
71897;BMP280;59767;51.344;12.362;2023-07-24T12:27:30;165877.91;;;27.75
71897;BMP280;59767;51.344;12.362;2023-07-24T12:30:35;165889.72;;;27.80
71897;BMP280;59767;51.344;12.362;2023-07-24T12:33:39;165923.97;;;27.93
71897;BMP280;59767;51.344;12.362;2023-07-24T12:36:43;165917.38;;;27.90
71897;BMP280;59767;51.344;12.362;2023-07-24T12:39:48;165434.53;;;28.09
71897;BMP280;59767;51.344;12.362;2023-07-24T12:42:53;165655.78;;;28.07
71897;BMP280;59767;51.344;12.362;2023-07-24T12:45:57;165270.63;;;28.12
71897;BMP280;59767;51.344;12.362;2023-07-24T12:49:01;165942.34;;;28.00
71897;BMP280;59767;51.344;12.362;2023-07-24T12:52:06;165908.19;;;27.87
71897;BMP280;59767;51.344;12.362;2023-07-24T12:55:11;165854.22;;;27.66
71897;BMP280;59767;51.344;12.362;2023-07-24T12:58:15;165804.16;;;27.47
71897;BMP280;59767;51.344;12.362;2023-07-24T13:01:19;165764.63;;;27.32
71897;BMP280;59767;51.344;12.362;2023-07-24T13:04:23;165742.19;;;27.24
71897;BMP280;59767;51.344;12.362;2023-07-24T13:07:28;165739.63;;;27.23
71897;BMP280;59767;51.344;12.362;2023-07-24T13:10:33;165680.34;;;27.00
71897;BMP280;59767;51.344;12.362;2023-07-24T13:13:37;165655.34;;;26.91
71897;BMP280;59767;51.344;12.362;2023-07-24T13:16:41;165659.31;;;26.92
71897;BMP280;59767;51.344;12.362;2023-07-24T13:19:45;165634.28;;;26.83
71897;BMP280;59767;51.344;12.362;2023-07-24T13:22:50;165605.31;;;26.72
71897;BMP280;59767;51.344;12.362;2023-07-24T13:25:54;165605.31;;;26.72
71897;BMP280;59767;51.344;12.362;2023-07-24T13:28:59;165578.94;;;26.62
71897;BMP280;59767;51.344;12.362;2023-07-24T13:32:04;165576.38;;;26.61
71897;BMP280;59767;51.344;12.362;2023-07-24T13:35:08;165636.91;;;26.84
71897;BMP280;59767;51.344;12.362;2023-07-24T13:38:12;165676.38;;;26.99
71897;BMP280;59767;51.344;12.362;2023-07-24T13:41:17;165696.13;;;27.06
71897;BMP280;59767;51.344;12.362;2023-07-24T13:44:21;165719.84;;;27.15
71897;BMP280;59767;51.344;12.362;2023-07-24T13:47:25;165773.88;;;27.36
71897;BMP280;59767;51.344;12.362;2023-07-24T13:50:30;165839.66;;;27.61
71897;BMP280;59767;51.344;12.362;2023-07-24T13:53:34;165906.84;;;27.86
71897;BMP280;59767;51.344;12.362;2023-07-24T13:56:38;165361.25;;;28.11
71897;BMP280;59767;51.344;12.362;2023-07-24T13:59:42;164710.75;;;28.22
71897;BMP280;59767;51.344;12.362;2023-07-24T14:02:47;163729.91;;;28.32
71897;BMP280;59767;51.344;12.362;2023-07-24T14:05:52;164172.34;;;28.27
71897;BMP280;59767;51.344;12.362;2023-07-24T14:08:55;163989.66;;;28.31
71897;BMP280;59767;51.344;12.362;2023-07-24T14:11:59;163717.81;;;28.33
71897;BMP280;59767;51.344;12.362;2023-07-24T14:15:04;163407.22;;;28.37
71897;BMP280;59767;51.344;12.362;2023-07-24T14:18:11;164685.41;;;28.22
71897;BMP280;59767;51.344;12.362;2023-07-24T14:21:16;165726.44;;;28.05
71897;BMP280;59767;51.344;12.362;2023-07-24T14:24:20;165934.47;;;27.97
71897;BMP280;59767;51.344;12.362;2023-07-24T14:27:25;165502.50;;;28.09
71897;BMP280;59767;51.344;12.362;2023-07-24T14:30:29;165245.31;;;28.12
71897;BMP280;59767;51.344;12.362;2023-07-24T14:33:34;164841.44;;;28.18
71897;BMP280;59767;51.344;12.362;2023-07-24T14:36:38;162443.78;;;28.46
71897;BMP280;59767;51.344;12.362;2023-07-24T14:39:42;160265.56;;;28.62
71897;BMP280;59767;51.344;12.362;2023-07-24T14:42:48;158090.78;;;28.77
71897;BMP280;59767;51.344;12.362;2023-07-24T14:45:52;157016.31;;;28.83
71897;BMP280;59767;51.344;12.362;2023-07-24T14:48:55;157552.91;;;28.80
71897;BMP280;59767;51.344;12.362;2023-07-24T14:52:00;160630.50;;;28.60
71897;BMP280;59767;51.344;12.362;2023-07-24T14:55:06;160246.94;;;28.62
71897;BMP280;59767;51.344;12.362;2023-07-24T14:58:10;160149.63;;;28.64
71897;BMP280;59767;51.344;12.362;2023-07-24T15:01:15;157757.84;;;28.79
71897;BMP280;59767;51.344;12.362;2023-07-24T15:04:19;158859.03;;;28.72
71897;BMP280;59767;51.344;12.362;2023-07-24T15:07:23;158701.75;;;28.74
71897;BMP280;59767;51.344;12.362;2023-07-24T15:10:28;161292.63;;;28.55
71897;BMP280;59767;51.344;12.362;2023-07-24T15:13:32;164292.19;;;28.28
71897;BMP280;59767;51.344;12.362;2023-07-24T15:16:36;165503.78;;;28.09
71897;BMP280;59767;51.344;12.362;2023-07-24T15:19:41;165203.88;;;28.15
71897;BMP280;59767;51.344;12.362;2023-07-24T15:22:45;165385.19;;;28.12
71897;BMP280;59767;51.344;12.362;2023-07-24T15:25:49;165939.78;;;27.99
71897;BMP280;59767;51.344;12.362;2023-07-24T15:28:54;165918.66;;;27.91
71897;BMP280;59767;51.344;12.362;2023-07-24T15:31:58;165942.34;;;28.00
71897;BMP280;59767;51.344;12.362;2023-07-24T15:35:03;165826.41;;;28.04
71897;BMP280;59767;51.344;12.362;2023-07-24T15:38:07;165933.22;;;27.96
71897;BMP280;59767;51.344;12.362;2023-07-24T15:41:12;165927.91;;;27.94
71897;BMP280;59767;51.344;12.362;2023-07-24T15:44:16;165898.94;;;27.83
71897;BMP280;59767;51.344;12.362;2023-07-24T15:47:21;165887.09;;;27.79
71897;BMP280;59767;51.344;12.362;2023-07-24T15:50:25;165884.44;;;27.78
71897;BMP280;59767;51.344;12.362;2023-07-24T15:53:29;165858.13;;;27.68
71897;BMP280;59767;51.344;12.362;2023-07-24T15:56:35;165870.00;;;27.72
71897;BMP280;59767;51.344;12.362;2023-07-24T15:59:39;165868.66;;;27.72
71897;BMP280;59767;51.344;12.362;2023-07-24T16:02:44;165900.28;;;27.84
71897;BMP280;59767;51.344;12.362;2023-07-24T16:05:48;165902.88;;;27.85
71897;BMP280;59767;51.344;12.362;2023-07-24T16:08:52;165879.19;;;27.76
71897;BMP280;59767;51.344;12.362;2023-07-24T16:11:56;165868.66;;;27.72
71897;BMP280;59767;51.344;12.362;2023-07-24T16:15:00;165864.69;;;27.70
71897;BMP280;59767;51.344;12.362;2023-07-24T16:18:04;165864.69;;;27.70
71897;BMP280;59767;51.344;12.362;2023-07-24T16:21:10;165856.78;;;27.67
71897;BMP280;59767;51.344;12.362;2023-07-24T16:24:15;165856.78;;;27.67
71897;BMP280;59767;51.344;12.362;2023-07-24T16:27:21;165829.19;;;27.57
71897;BMP280;59767;51.344;12.362;2023-07-24T16:30:26;165837.09;;;27.60
71897;BMP280;59767;51.344;12.362;2023-07-24T16:33:31;165821.25;;;27.54
71897;BMP280;59767;51.344;12.362;2023-07-24T16:36:35;165833.09;;;27.58
71897;BMP280;59767;51.344;12.362;2023-07-24T16:39:39;165812.06;;;27.50
71897;BMP280;59767;51.344;12.362;2023-07-24T16:42:43;165819.94;;;27.53
71897;BMP280;59767;51.344;12.362;2023-07-24T16:45:49;165787.03;;;27.41
71897;BMP280;59767;51.344;12.362;2023-07-24T16:48:57;165760.66;;;27.31
71897;BMP280;59767;51.344;12.362;2023-07-24T16:52:03;165739.63;;;27.23
71897;BMP280;59767;51.344;12.362;2023-07-24T16:55:08;165742.19;;;27.24
71897;BMP280;59767;51.344;12.362;2023-07-24T16:58:12;165714.59;;;27.13
71897;BMP280;59767;51.344;12.362;2023-07-24T17:01:16;165702.72;;;27.09
71897;BMP280;59767;51.344;12.362;2023-07-24T17:04:20;165689.59;;;27.04
71897;BMP280;59767;51.344;12.362;2023-07-24T17:07:24;165673.78;;;26.98
71897;BMP280;59767;51.344;12.362;2023-07-24T17:10:38;165677.72;;;26.99
71897;BMP280;59767;51.344;12.362;2023-07-24T17:13:44;165656.66;;;26.91
71897;BMP280;59767;51.344;12.362;2023-07-24T17:16:48;165647.44;;;26.88